America — WDE6076 — position and weather

sailwx.info

Track history (hours):
 
Tides and Currents Weather Stations Pressure Air Temp Water Temp Dewpoint Dewpoint Depression Visibility Wind Speed Wind Dir Waves Ship Positions

America

Owner: ET Yacht, LLC, San Diego, CA. More information available from US FCC via Universal Licensing System and Coast Guard Vessel Documentation Center.

Last reported at 2017-Mar-25 07:19 UTC. Time now 2017-Mar-25 07:45 UTC.
Position N 32°43' W 117°10'.

Length 42 m; draft 3.5 m.

Type: Sailing vessel. MMSI: 367375550.

Date/timePositionNaut miles runAvg speedWind from/ knotsBaromVisibWave heightAir tempDewpointWater temp
2017-Mar-25 07:19N 32°43' W 117°10'0 0.0
2017-Mar-25 06:25N 32°43' W 117°10'0 0.0
2017-Mar-25 05:33N 32°43' W 117°10'0 0.0
2017-Mar-25 04:33N 32°43' W 117°10'0 0.0
2017-Mar-25 03:32N 32°43' W 117°10'0 0.0
2017-Mar-25 02:33N 32°43' W 117°10'0 0.0
2017-Mar-25 01:33N 32°43' W 117°10'0 0.0
2017-Mar-25 00:33N 32°43' W 117°10'0 0.0
2017-Mar-24 23:33N 32°43' W 117°10'0 0.1
2017-Mar-24 22:32N 32°43' W 117°10'7 7.2
2017-Mar-24 21:34N 32°38' W 117°16'8 7.8
2017-Mar-24 20:34N 32°34' W 117°24'6 5.9
2017-Mar-24 19:34N 32°37' W 117°18'7 7.0
2017-Mar-24 18:34N 32°42' W 117°13'3 2.4
2017-Mar-24 17:31N 32°43' W 117°10'0 0.0
2017-Mar-24 15:30N 32°43' W 117°10'0 0.0
2017-Mar-24 14:23N 32°43' W 117°10'0 0.0
2017-Mar-24 13:29N 32°43' W 117°10'0 0.0
2017-Mar-24 12:10N 32°43' W 117°10'0 0.0
2017-Mar-24 11:24N 32°43' W 117°10'0 0.0
2017-Mar-24 07:23N 32°43' W 117°10'0 0.0
2017-Mar-24 06:08N 32°43' W 117°10'0 0.0
2017-Mar-24 04:28N 32°43' W 117°10'0 0.0
2017-Mar-24 03:33N 32°43' W 117°10'0 0.0
2017-Mar-24 02:31N 32°43' W 117°10'0 0.0
2017-Mar-24 01:23N 32°43' W 117°10'0 0.0
2017-Mar-24 00:32N 32°43' W 117°10'0 0.0
2017-Mar-23 23:33N 32°43' W 117°10'0 0.0
2017-Mar-23 22:32N 32°43' W 117°10'0 0.0
2017-Mar-23 21:33N 32°43' W 117°10'0 0.0
2017-Mar-23 20:31N 32°43' W 117°10'0 0.0
2017-Mar-23 19:33N 32°43' W 117°10'0 0.0
2017-Mar-23 18:29N 32°43' W 117°10'0 0.0
2017-Mar-23 17:30N 32°43' W 117°10'0 0.0
2017-Mar-23 16:30N 32°43' W 117°10'0 0.0
2017-Mar-23 15:32N 32°43' W 117°10'0 0.0
2017-Mar-23 14:33N 32°43' W 117°10'0 0.0
2017-Mar-23 13:33N 32°43' W 117°10'0 0.0
2017-Mar-23 12:33N 32°43' W 117°10'0 0.0
2017-Mar-23 11:33N 32°43' W 117°10'0 0.0
2017-Mar-23 10:33N 32°43' W 117°10'0 0.0
2017-Mar-23 09:33N 32°43' W 117°10'0 0.0
2017-Mar-23 08:33N 32°43' W 117°10'0 0.0
2017-Mar-23 07:33N 32°43' W 117°10'0 0.0
2017-Mar-23 06:32N 32°43' W 117°10'0 0.0
2017-Mar-23 05:33N 32°43' W 117°10'0 0.0
2017-Mar-23 04:33N 32°43' W 117°10'0 0.0
2017-Mar-23 03:33N 32°43' W 117°10'0 0.0
2017-Mar-23 02:33N 32°43' W 117°10'0 0.0
2017-Mar-23 01:33N 32°43' W 117°10'0 0.0
2017-Mar-23 00:33N 32°43' W 117°10'0 0.0
2017-Mar-22 23:32N 32°43' W 117°10'0 0.0
2017-Mar-22 22:33N 32°43' W 117°10'0 0.0
2017-Mar-22 21:28N 32°43' W 117°10'0 0.0
2017-Mar-22 20:33N 32°43' W 117°10'0 0.0
2017-Mar-22 19:33N 32°43' W 117°10'0 0.0
2017-Mar-22 06:18N 32°43' W 117°10'0 0.0
2017-Mar-21 22:25N 32°43' W 117°10'0 0.0
2017-Mar-21 15:25N 32°43' W 117°10'0 0.0
2017-Mar-21 13:04N 32°43' W 117°10'0 0.0
2017-Mar-21 12:12N 32°43' W 117°10'0 0.0
2017-Mar-21 11:33N 32°43' W 117°10'0 0.0
2017-Mar-21 08:31N 32°43' W 117°10'0 0.0
2017-Mar-21 07:25N 32°43' W 117°10'0 0.0
2017-Mar-21 06:27N 32°43' W 117°10'0 0.0
2017-Mar-21 01:20N 32°43' W 117°10'0 0.0
2017-Mar-20 22:16N 32°43' W 117°10'3 4.2
2017-Mar-20 21:33N 32°42' W 117°14'3 3.2
2017-Mar-20 20:33N 32°40' W 117°17'2 2.3
2017-Mar-20 19:33N 32°40' W 117°20'5 5.1
2017-Mar-20 18:34N 32°42' W 117°14'3 0.6
2017-Mar-20 13:33N 32°43' W 117°10'0 0.0
2017-Mar-20 10:29N 32°43' W 117°10'0 0.0
2017-Mar-19 23:11N 32°43' W 117°10'4 6.1
2017-Mar-19 22:33N 32°41' W 117°14'7 6.7
2017-Mar-19 21:33N 32°35' W 117°17'4 4.1
2017-Mar-19 20:32N 32°31' W 117°19'4 3.9
2017-Mar-19 19:33N 32°34' W 117°19'8 8.4
2017-Mar-19 18:33N 32°41' W 117°14'3 3.2
2017-Mar-19 17:29N 32°43' W 117°10'0 0.0
2017-Mar-19 16:33N 32°43' W 117°10'0 0.0
2017-Mar-19 15:12N 32°43' W 117°10'0 0.0
2017-Mar-19 14:24N 32°43' W 117°10'0 0.0
2017-Mar-19 13:19N 32°43' W 117°10'0 0.0
2017-Mar-19 04:07N 32°43' W 117°10'0 0.0
2017-Mar-19 00:33N 32°43' W 117°10'5 5.0
2017-Mar-18 23:33N 32°39' W 117°14'6 5.8
2017-Mar-18 22:33N 32°34' W 117°17'6 6.2
2017-Mar-18 21:33N 32°40' W 117°14'5 4.5
2017-Mar-18 20:32N 32°43' W 117°10'0 0.0
2017-Mar-18 19:33N 32°43' W 117°10'0 0.0
2017-Mar-18 18:33N 32°43' W 117°10'0 0.0
2017-Mar-18 17:33N 32°43' W 117°10'0 0.0
2017-Mar-18 15:19N 32°43' W 117°10'0 0.0
2017-Mar-18 14:33N 32°43' W 117°10'0 0.0
2017-Mar-18 13:22N 32°43' W 117°10'0 0.0
2017-Mar-18 12:25N 32°43' W 117°10'0 0.0
2017-Mar-18 08:04N 32°43' W 117°10'0 0.0
2017-Mar-18 07:32N 32°43' W 117°10'0 0.0
2017-Mar-18 06:29N 32°43' W 117°10'0 0.0
2017-Mar-18 05:32N 32°43' W 117°10'0 0.0
2017-Mar-18 04:26N 32°43' W 117°10'0 0.0
2017-Mar-18 03:33N 32°43' W 117°10'0 0.0
2017-Mar-18 02:32N 32°43' W 117°10'0 0.0
2017-Mar-18 00:27N 32°43' W 117°10'0 0.0
2017-Mar-17 23:33N 32°43' W 117°10'0 0.0
2017-Mar-17 22:33N 32°43' W 117°10'2 2.0
2017-Mar-17 21:33N 32°43' W 117°13'4 4.0
2017-Mar-17 20:33N 32°40' W 117°16'3 2.6
2017-Mar-17 19:34N 32°40' W 117°20'6 5.6
2017-Mar-17 18:33N 32°42' W 117°13'3 2.5
2017-Mar-17 17:28N 32°43' W 117°10'0 0.0
2017-Mar-17 16:26N 32°43' W 117°10'0 0.0
2017-Mar-17 15:13N 32°43' W 117°10'2 2.8
2017-Mar-17 14:31N 32°44' W 117°13'2 0.2
2017-Mar-17 04:27N 32°43' W 117°10'0 0.0
2017-Mar-17 03:10N 32°43' W 117°10'0 0.0
2017-Mar-17 01:21N 32°43' W 117°10'0 0.0
2017-Mar-17 00:27N 32°43' W 117°10'0 0.0
2017-Mar-16 23:23N 32°43' W 117°10'0 0.0
2017-Mar-16 22:28N 32°43' W 117°10'0 0.0
2017-Mar-16 21:27N 32°43' W 117°10'0 0.0
2017-Mar-16 20:28N 32°43' W 117°10'0 0.0
2017-Mar-16 17:26N 32°43' W 117°10'0 0.0
2017-Mar-16 16:29N 32°43' W 117°10'0 0.0
2017-Mar-16 08:22N 32°43' W 117°10'0 0.0
2017-Mar-16 05:27N 32°43' W 117°10'0 0.0
2017-Mar-16 04:30N 32°43' W 117°10'0 0.0
2017-Mar-16 03:13N 32°43' W 117°10'0 0.0
2017-Mar-16 02:30N 32°43' W 117°10'0 0.0
2017-Mar-16 00:20N 32°43' W 117°10'0 0.0
2017-Mar-15 23:24N 32°43' W 117°10'0 0.0
2017-Mar-15 22:26N 32°43' W 117°10'2 2.8
2017-Mar-15 21:33N 32°43' W 117°13'5 4.6
2017-Mar-15 20:33N 32°38' W 117°14'4 3.9
2017-Mar-15 19:33N 32°37' W 117°19'7 7.2
2017-Mar-15 18:33N 32°43' W 117°13'2 1.0
2017-Mar-15 16:11N 32°43' W 117°10'0 0.0
2017-Mar-15 15:32N 32°43' W 117°10'0 0.0
2017-Mar-15 14:33N 32°43' W 117°10'0 0.0
2017-Mar-15 13:26N 32°43' W 117°10'0 0.0
2017-Mar-15 12:29N 32°43' W 117°10'  
Track history (hours):
 
Tides and Currents Weather Stations Pressure Air Temp Water Temp Dewpoint Dewpoint Depression Visibility Wind Speed Wind Dir Waves Ship Positions

America

Owner: ET Yacht, LLC, San Diego, CA. More information available from US FCC via Universal Licensing System and Coast Guard Vessel Documentation Center.

Last reported at 2017-Mar-25 07:19 UTC. Time now 2017-Mar-25 07:45 UTC.
Position N 32°43' W 117°10'.

Length 42 m; draft 3.5 m.

Type: Sailing vessel. MMSI: 367375550.

Date/timePositionNaut miles runAvg speedWind from/ knotsBaromVisibWave heightAir tempDewpointWater temp
2017-Mar-25 07:19N 32°43' W 117°10'0 0.0
2017-Mar-25 06:25N 32°43' W 117°10'0 0.0
2017-Mar-25 05:33N 32°43' W 117°10'0 0.0
2017-Mar-25 04:33N 32°43' W 117°10'0 0.0
2017-Mar-25 03:32N 32°43' W 117°10'0 0.0
2017-Mar-25 02:33N 32°43' W 117°10'0 0.0
2017-Mar-25 01:33N 32°43' W 117°10'0 0.0
2017-Mar-25 00:33N 32°43' W 117°10'0 0.0
2017-Mar-24 23:33N 32°43' W 117°10'0 0.1
2017-Mar-24 22:32N 32°43' W 117°10'7 7.2
2017-Mar-24 21:34N 32°38' W 117°16'8 7.8
2017-Mar-24 20:34N 32°34' W 117°24'6 5.9
2017-Mar-24 19:34N 32°37' W 117°18'7 7.0
2017-Mar-24 18:34N 32°42' W 117°13'3 2.4
2017-Mar-24 17:31N 32°43' W 117°10'0 0.0
2017-Mar-24 15:30N 32°43' W 117°10'0 0.0
2017-Mar-24 14:23N 32°43' W 117°10'0 0.0
2017-Mar-24 13:29N 32°43' W 117°10'0 0.0
2017-Mar-24 12:10N 32°43' W 117°10'0 0.0
2017-Mar-24 11:24N 32°43' W 117°10'0 0.0
2017-Mar-24 07:23N 32°43' W 117°10'0 0.0
2017-Mar-24 06:08N 32°43' W 117°10'0 0.0
2017-Mar-24 04:28N 32°43' W 117°10'0 0.0
2017-Mar-24 03:33N 32°43' W 117°10'0 0.0
2017-Mar-24 02:31N 32°43' W 117°10'0 0.0
2017-Mar-24 01:23N 32°43' W 117°10'0 0.0
2017-Mar-24 00:32N 32°43' W 117°10'0 0.0
2017-Mar-23 23:33N 32°43' W 117°10'0 0.0
2017-Mar-23 22:32N 32°43' W 117°10'0 0.0
2017-Mar-23 21:33N 32°43' W 117°10'0 0.0
2017-Mar-23 20:31N 32°43' W 117°10'0 0.0
2017-Mar-23 19:33N 32°43' W 117°10'0 0.0
2017-Mar-23 18:29N 32°43' W 117°10'0 0.0
2017-Mar-23 17:30N 32°43' W 117°10'0 0.0
2017-Mar-23 16:30N 32°43' W 117°10'0 0.0
2017-Mar-23 15:32N 32°43' W 117°10'0 0.0
2017-Mar-23 14:33N 32°43' W 117°10'0 0.0
2017-Mar-23 13:33N 32°43' W 117°10'0 0.0
2017-Mar-23 12:33N 32°43' W 117°10'0 0.0
2017-Mar-23 11:33N 32°43' W 117°10'0 0.0
2017-Mar-23 10:33N 32°43' W 117°10'0 0.0
2017-Mar-23 09:33N 32°43' W 117°10'0 0.0
2017-Mar-23 08:33N 32°43' W 117°10'0 0.0
2017-Mar-23 07:33N 32°43' W 117°10'0 0.0
2017-Mar-23 06:32N 32°43' W 117°10'0 0.0
2017-Mar-23 05:33N 32°43' W 117°10'0 0.0
2017-Mar-23 04:33N 32°43' W 117°10'0 0.0
2017-Mar-23 03:33N 32°43' W 117°10'0 0.0
2017-Mar-23 02:33N 32°43' W 117°10'0 0.0
2017-Mar-23 01:33N 32°43' W 117°10'0 0.0
2017-Mar-23 00:33N 32°43' W 117°10'0 0.0
2017-Mar-22 23:32N 32°43' W 117°10'0 0.0
2017-Mar-22 22:33N 32°43' W 117°10'0 0.0
2017-Mar-22 21:28N 32°43' W 117°10'0 0.0
2017-Mar-22 20:33N 32°43' W 117°10'0 0.0
2017-Mar-22 19:33N 32°43' W 117°10'0 0.0
2017-Mar-22 06:18N 32°43' W 117°10'0 0.0
2017-Mar-21 22:25N 32°43' W 117°10'0 0.0
2017-Mar-21 15:25N 32°43' W 117°10'0 0.0
2017-Mar-21 13:04N 32°43' W 117°10'0 0.0
2017-Mar-21 12:12N 32°43' W 117°10'0 0.0
2017-Mar-21 11:33N 32°43' W 117°10'0 0.0
2017-Mar-21 08:31N 32°43' W 117°10'0 0.0
2017-Mar-21 07:25N 32°43' W 117°10'0 0.0
2017-Mar-21 06:27N 32°43' W 117°10'0 0.0
2017-Mar-21 01:20N 32°43' W 117°10'0 0.0
2017-Mar-20 22:16N 32°43' W 117°10'3 4.2
2017-Mar-20 21:33N 32°42' W 117°14'3 3.2
2017-Mar-20 20:33N 32°40' W 117°17'2 2.3
2017-Mar-20 19:33N 32°40' W 117°20'5 5.1
2017-Mar-20 18:34N 32°42' W 117°14'3 0.6
2017-Mar-20 13:33N 32°43' W 117°10'0 0.0
2017-Mar-20 10:29N 32°43' W 117°10'0 0.0
2017-Mar-19 23:11N 32°43' W 117°10'4 6.1
2017-Mar-19 22:33N 32°41' W 117°14'7 6.7
2017-Mar-19 21:33N 32°35' W 117°17'4 4.1
2017-Mar-19 20:32N 32°31' W 117°19'4 3.9
2017-Mar-19 19:33N 32°34' W 117°19'8 8.4
2017-Mar-19 18:33N 32°41' W 117°14'3 3.2
2017-Mar-19 17:29N 32°43' W 117°10'0 0.0
2017-Mar-19 16:33N 32°43' W 117°10'0 0.0
2017-Mar-19 15:12N 32°43' W 117°10'0 0.0
2017-Mar-19 14:24N 32°43' W 117°10'0 0.0
2017-Mar-19 13:19N 32°43' W 117°10'0 0.0
2017-Mar-19 04:07N 32°43' W 117°10'0 0.0
2017-Mar-19 00:33N 32°43' W 117°10'5 5.0
2017-Mar-18 23:33N 32°39' W 117°14'6 5.8
2017-Mar-18 22:33N 32°34' W 117°17'6 6.2
2017-Mar-18 21:33N 32°40' W 117°14'5 4.5
2017-Mar-18 20:32N 32°43' W 117°10'0 0.0
2017-Mar-18 19:33N 32°43' W 117°10'0 0.0
2017-Mar-18 18:33N 32°43' W 117°10'0 0.0
2017-Mar-18 17:33N 32°43' W 117°10'0 0.0
2017-Mar-18 15:19N 32°43' W 117°10'0 0.0
2017-Mar-18 14:33N 32°43' W 117°10'0 0.0
2017-Mar-18 13:22N 32°43' W 117°10'0 0.0
2017-Mar-18 12:25N 32°43' W 117°10'0 0.0
2017-Mar-18 08:04N 32°43' W 117°10'0 0.0
2017-Mar-18 07:32N 32°43' W 117°10'0 0.0
2017-Mar-18 06:29N 32°43' W 117°10'0 0.0
2017-Mar-18 05:32N 32°43' W 117°10'0 0.0
2017-Mar-18 04:26N 32°43' W 117°10'0 0.0
2017-Mar-18 03:33N 32°43' W 117°10'0 0.0
2017-Mar-18 02:32N 32°43' W 117°10'0 0.0
2017-Mar-18 00:27N 32°43' W 117°10'0 0.0
2017-Mar-17 23:33N 32°43' W 117°10'0 0.0
2017-Mar-17 22:33N 32°43' W 117°10'2 2.0
2017-Mar-17 21:33N 32°43' W 117°13'4 4.0
2017-Mar-17 20:33N 32°40' W 117°16'3 2.6
2017-Mar-17 19:34N 32°40' W 117°20'6 5.6
2017-Mar-17 18:33N 32°42' W 117°13'3 2.5
2017-Mar-17 17:28N 32°43' W 117°10'0 0.0
2017-Mar-17 16:26N 32°43' W 117°10'0 0.0
2017-Mar-17 15:13N 32°43' W 117°10'2 2.8
2017-Mar-17 14:31N 32°44' W 117°13'2 0.2
2017-Mar-17 04:27N 32°43' W 117°10'0 0.0
2017-Mar-17 03:10N 32°43' W 117°10'0 0.0
2017-Mar-17 01:21N 32°43' W 117°10'0 0.0
2017-Mar-17 00:27N 32°43' W 117°10'0 0.0
2017-Mar-16 23:23N 32°43' W 117°10'0 0.0
2017-Mar-16 22:28N 32°43' W 117°10'0 0.0
2017-Mar-16 21:27N 32°43' W 117°10'0 0.0
2017-Mar-16 20:28N 32°43' W 117°10'0 0.0
2017-Mar-16 17:26N 32°43' W 117°10'0 0.0
2017-Mar-16 16:29N 32°43' W 117°10'0 0.0
2017-Mar-16 08:22N 32°43' W 117°10'0 0.0
2017-Mar-16 05:27N 32°43' W 117°10'0 0.0
2017-Mar-16 04:30N 32°43' W 117°10'0 0.0
2017-Mar-16 03:13N 32°43' W 117°10'0 0.0
2017-Mar-16 02:30N 32°43' W 117°10'0 0.0
2017-Mar-16 00:20N 32°43' W 117°10'0 0.0
2017-Mar-15 23:24N 32°43' W 117°10'0 0.0
2017-Mar-15 22:26N 32°43' W 117°10'2 2.8
2017-Mar-15 21:33N 32°43' W 117°13'5 4.6
2017-Mar-15 20:33N 32°38' W 117°14'4 3.9
2017-Mar-15 19:33N 32°37' W 117°19'7 7.2
2017-Mar-15 18:33N 32°43' W 117°13'2 1.0
2017-Mar-15 16:11N 32°43' W 117°10'0 0.0
2017-Mar-15 15:32N 32°43' W 117°10'0 0.0
2017-Mar-15 14:33N 32°43' W 117°10'0 0.0
2017-Mar-15 13:26N 32°43' W 117°10'0 0.0
2017-Mar-15 12:29N 32°43' W 117°10'  

Dump ship's entire track history